createdAt,value
2019-05-22T00:01:01.533Z,23.40
2019-05-22T00:03:33.942Z,23.40
2019-05-22T00:06:05.922Z,23.40
2019-05-22T00:08:37.760Z,23.40
2019-05-22T00:11:10.413Z,23.40
2019-05-22T00:13:41.691Z,23.40
2019-05-22T00:16:13.950Z,23.30
2019-05-22T00:18:45.886Z,23.30
2019-05-22T00:21:17.832Z,23.30
2019-05-22T00:23:49.408Z,23.30
2019-05-22T00:26:23.119Z,23.30
2019-05-22T00:28:56.109Z,23.30
2019-05-22T00:31:28.077Z,23.30
2019-05-22T00:34:00.961Z,23.30
2019-05-22T00:36:34.154Z,23.30
2019-05-22T00:39:08.260Z,23.30
2019-05-22T00:41:41.191Z,23.30
2019-05-22T00:44:15.265Z,23.30
2019-05-22T00:46:46.699Z,23.30
2019-05-22T00:49:19.509Z,23.30
2019-05-22T00:51:53.613Z,23.30
2019-05-22T00:54:26.904Z,23.30
2019-05-22T00:56:59.951Z,23.30
2019-05-22T00:59:32.372Z,23.30
2019-05-22T01:02:04.948Z,23.40
2019-05-22T01:04:37.967Z,23.40
2019-05-22T01:07:11.217Z,23.40
2019-05-22T01:09:44.221Z,23.40
2019-05-22T01:12:18.890Z,23.40
2019-05-22T01:14:51.948Z,23.40
2019-05-22T01:17:25.548Z,23.40
2019-05-22T01:19:58.938Z,23.40
2019-05-22T01:22:31.920Z,23.40
2019-05-22T01:25:05.515Z,23.50
2019-05-22T01:27:38.415Z,23.60
2019-05-22T01:30:11.507Z,23.70
2019-05-22T01:32:45.406Z,23.80
2019-05-22T01:35:17.891Z,23.90
2019-05-22T01:37:51.230Z,24.00
2019-05-22T01:40:25.735Z,24.10
2019-05-22T01:42:59.018Z,24.10
2019-05-22T01:45:31.323Z,24.20
2019-05-22T01:48:03.861Z,24.30
2019-05-22T01:50:38.980Z,24.30
2019-05-22T01:53:12.004Z,24.40
2019-05-22T01:55:45.432Z,24.40
2019-05-22T01:58:17.353Z,24.50
2019-05-22T02:00:49.739Z,24.50
2019-05-22T02:03:22.359Z,24.70
2019-05-22T02:05:54.319Z,24.70
2019-05-22T02:08:28.066Z,24.80
2019-05-22T02:11:19.843Z,24.80
2019-05-22T02:13:53.869Z,24.80
2019-05-22T02:16:25.464Z,24.90
2019-05-22T02:18:57.957Z,24.90
2019-05-22T02:21:29.919Z,25.00
2019-05-22T02:24:02.008Z,25.00
2019-05-22T02:26:33.769Z,25.00
2019-05-22T02:29:06.732Z,25.00
2019-05-22T02:31:38.373Z,25.00
2019-05-22T02:34:10.828Z,25.00
2019-05-22T02:36:44.273Z,25.10
2019-05-22T02:39:19.761Z,25.10
2019-05-22T02:41:53.585Z,25.10
2019-05-22T02:44:26.531Z,25.10
2019-05-22T02:47:18.280Z,25.10
2019-05-22T02:49:37.020Z,25.20
2019-05-22T02:52:10.609Z,25.20
2019-05-22T02:54:43.013Z,25.20
2019-05-22T02:57:14.878Z,25.20
2019-05-22T02:59:47.161Z,25.20
2019-05-22T03:02:19.678Z,25.20
2019-05-22T03:04:53.196Z,25.30
2019-05-22T03:07:27.185Z,25.30
2019-05-22T03:09:59.554Z,25.40
2019-05-22T03:12:33.411Z,25.40
2019-05-22T03:15:06.991Z,25.50
2019-05-22T03:17:41.220Z,25.50
2019-05-22T03:20:14.910Z,25.60
2019-05-22T03:22:49.476Z,25.60
2019-05-22T03:25:21.227Z,25.70
2019-05-22T03:27:55.644Z,25.80
2019-05-22T03:30:29.505Z,25.90
2019-05-22T03:33:03.130Z,26.10
2019-05-22T03:35:36.733Z,26.10
2019-05-22T03:38:09.650Z,26.20
2019-05-22T03:40:42.166Z,26.40
2019-05-22T03:43:16.702Z,26.60
2019-05-22T03:45:49.168Z,26.70
2019-05-22T03:48:22.993Z,26.80
2019-05-22T03:50:56.837Z,27.10
2019-05-22T03:53:28.862Z,27.30
2019-05-22T03:56:00.907Z,27.60
2019-05-22T03:58:51.428Z,27.80
2019-05-22T04:01:23.496Z,28.10
2019-05-22T04:03:53.930Z,28.30
2019-05-22T04:06:27.326Z,28.50
2019-05-22T04:09:01.356Z,28.60
2019-05-22T04:11:35.252Z,28.50
2019-05-22T04:14:06.740Z,28.60
2019-05-22T04:16:38.757Z,28.80
2019-05-22T04:19:09.531Z,29.00
2019-05-22T04:21:40.815Z,29.20
2019-05-22T04:24:12.321Z,29.40
2019-05-22T04:26:45.178Z,29.50
2019-05-22T04:29:17.492Z,29.60
2019-05-22T04:31:52.637Z,29.70
2019-05-22T04:34:24.674Z,29.70
2019-05-22T04:36:55.418Z,29.70
2019-05-22T04:39:29.127Z,29.60
2019-05-22T04:42:02.504Z,29.60
2019-05-22T04:44:34.474Z,29.70
2019-05-22T04:47:05.636Z,29.70
2019-05-22T04:49:38.129Z,29.70
2019-05-22T04:52:11.100Z,29.70
2019-05-22T04:54:43.349Z,29.70
2019-05-22T04:57:15.153Z,29.70
2019-05-22T04:59:46.473Z,29.80
2019-05-22T05:02:18.624Z,29.90
2019-05-22T05:04:50.649Z,29.90
2019-05-22T05:07:21.431Z,30.00
2019-05-22T05:09:52.891Z,30.00
2019-05-22T05:12:24.508Z,29.90
2019-05-22T05:14:56.179Z,29.90
2019-05-22T05:17:28.787Z,29.90
2019-05-22T05:20:01.041Z,29.90
2019-05-22T05:22:35.155Z,29.90
2019-05-22T05:25:07.830Z,29.90
2019-05-22T05:27:40.021Z,29.90
2019-05-22T05:30:13.304Z,29.90
2019-05-22T05:32:45.983Z,29.90
2019-05-22T05:35:20.007Z,29.90
2019-05-22T05:37:52.558Z,29.90
2019-05-22T05:40:26.714Z,29.90
2019-05-22T05:42:58.181Z,29.90
2019-05-22T05:45:32.080Z,29.80
2019-05-22T05:48:05.942Z,29.90
2019-05-22T05:50:40.354Z,30.00
2019-05-22T05:53:13.897Z,30.10
2019-05-22T05:55:49.563Z,30.10
2019-05-22T05:58:23.439Z,30.00
2019-05-22T06:00:58.558Z,29.90
2019-05-22T06:03:51.516Z,30.00
2019-05-22T06:06:26.436Z,30.10
2019-05-22T06:09:00.601Z,30.20
2019-05-22T06:11:35.271Z,30.20
2019-05-22T06:14:08.008Z,30.30
2019-05-22T06:16:42.788Z,30.40
2019-05-22T06:19:15.256Z,30.50
2019-05-22T06:21:46.243Z,30.60
2019-05-22T06:24:20.672Z,30.70
2019-05-22T06:26:55.191Z,30.80
2019-05-22T06:29:30.390Z,30.90
2019-05-22T06:32:05.279Z,31.00
2019-05-22T06:34:38.665Z,31.00
2019-05-22T06:37:13.701Z,31.10
2019-05-22T06:39:46.364Z,31.10
2019-05-22T06:42:18.367Z,31.20
2019-05-22T06:44:48.576Z,31.20
2019-05-22T06:47:21.679Z,31.20
2019-05-22T06:49:54.534Z,31.30
2019-05-22T06:52:26.628Z,31.40
2019-05-22T06:54:58.711Z,31.50
2019-05-22T06:57:31.060Z,31.50
2019-05-22T07:00:15.001Z,31.50
2019-05-22T07:02:39.188Z,31.60
2019-05-22T07:05:11.924Z,31.60
2019-05-22T07:07:44.334Z,31.60
2019-05-22T07:10:16.659Z,31.60
2019-05-22T07:12:50.727Z,31.60
2019-05-22T07:15:23.228Z,31.70
2019-05-22T07:17:54.833Z,31.60
2019-05-22T07:20:28.528Z,31.70
2019-05-22T07:23:01.723Z,31.70
2019-05-22T07:25:35.786Z,31.80
2019-05-22T07:28:09.506Z,31.80
2019-05-22T07:30:41.131Z,31.90
2019-05-22T07:33:14.276Z,32.00
2019-05-22T07:36:07.695Z,32.00
2019-05-22T07:38:21.616Z,32.10
2019-05-22T07:40:54.675Z,32.10
2019-05-22T07:43:27.709Z,32.10
2019-05-22T07:46:01.084Z,32.20
2019-05-22T07:48:34.336Z,32.20
2019-05-22T07:51:07.209Z,32.20
2019-05-22T07:53:39.288Z,32.20
2019-05-22T07:56:13.505Z,32.20
2019-05-22T07:58:46.929Z,32.30
2019-05-22T08:01:19.464Z,32.30
2019-05-22T08:03:51.531Z,32.30
2019-05-22T08:06:23.994Z,32.30
2019-05-22T08:08:56.568Z,32.30
2019-05-22T08:11:28.636Z,32.30
2019-05-22T08:14:00.744Z,32.30
2019-05-22T08:16:33.495Z,32.30
2019-05-22T08:19:05.483Z,32.30
2019-05-22T08:21:37.858Z,32.40
2019-05-22T08:24:10.945Z,32.40
2019-05-22T08:26:53.823Z,32.50
2019-05-22T08:29:17.556Z,32.50
2019-05-22T08:31:50.198Z,32.50
2019-05-22T08:34:22.472Z,32.40
2019-05-22T08:36:54.489Z,32.30
2019-05-22T08:39:28.034Z,32.40
2019-05-22T08:42:01.576Z,32.30
2019-05-22T08:44:34.527Z,32.30
2019-05-22T08:47:06.807Z,32.30
2019-05-22T08:49:40.105Z,32.40
2019-05-22T08:52:23.113Z,32.40
2019-05-22T08:54:49.438Z,32.30
2019-05-22T08:57:22.751Z,32.30
2019-05-22T08:59:54.509Z,32.10
2019-05-22T09:02:26.568Z,32.10
2019-05-22T09:04:58.965Z,32.10
2019-05-22T09:07:30.724Z,32.00
2019-05-22T09:10:02.804Z,32.00
2019-05-22T09:12:34.078Z,32.00
2019-05-22T09:15:06.890Z,32.00
2019-05-22T09:17:39.684Z,32.00
2019-05-22T09:20:13.487Z,32.00
2019-05-22T09:22:45.257Z,32.00
2019-05-22T09:25:17.751Z,31.90
2019-05-22T09:27:49.558Z,32.00
2019-05-22T09:30:20.843Z,32.00
2019-05-22T09:32:53.679Z,32.10
2019-05-22T09:35:25.941Z,32.10
2019-05-22T09:37:58.573Z,32.20
2019-05-22T09:40:31.491Z,32.20
2019-05-22T09:43:03.415Z,32.30
2019-05-22T09:45:34.184Z,32.20
2019-05-22T09:48:06.947Z,32.30
2019-05-22T09:50:38.927Z,32.30
2019-05-22T09:53:11.749Z,32.30
2019-05-22T09:55:47.038Z,32.40
2019-05-22T09:58:16.287Z,32.50
2019-05-22T10:00:48.618Z,32.50
2019-05-22T10:03:20.536Z,32.50
2019-05-22T10:05:53.230Z,32.50
2019-05-22T10:08:25.526Z,32.50
2019-05-22T10:10:58.005Z,32.50
2019-05-22T10:13:30.194Z,32.30
2019-05-22T10:16:01.935Z,32.30
2019-05-22T10:18:33.266Z,32.20
2019-05-22T10:21:05.400Z,32.20
2019-05-22T10:23:37.160Z,32.10
2019-05-22T10:26:09.078Z,32.10
2019-05-22T10:28:41.547Z,32.00
2019-05-22T10:41:49.456Z,31.80
2019-05-22T10:44:21.606Z,31.70
2019-05-22T10:46:53.247Z,31.60
2019-05-22T10:49:25.207Z,31.60
2019-05-22T10:51:56.776Z,31.40
2019-05-22T10:54:27.834Z,31.40
2019-05-22T10:56:59.356Z,31.30
2019-05-22T10:59:30.319Z,31.20
2019-05-22T11:02:02.356Z,31.20
2019-05-22T11:04:34.346Z,31.10
2019-05-22T11:07:04.669Z,31.10
2019-05-22T11:09:36.762Z,31.00
2019-05-22T11:12:08.946Z,30.90
2019-05-22T11:14:41.706Z,30.80
2019-05-22T11:17:13.743Z,30.80
2019-05-22T11:19:46.529Z,30.70
2019-05-22T11:22:18.637Z,30.60
2019-05-22T11:24:50.260Z,30.60
2019-05-22T11:27:22.732Z,30.40
2019-05-22T11:29:54.713Z,30.30
2019-05-22T11:32:25.138Z,30.30
2019-05-22T11:34:56.110Z,30.20
2019-05-22T11:37:28.146Z,30.10
2019-05-22T11:39:58.710Z,30.00
2019-05-22T11:42:30.585Z,29.90
2019-05-22T11:45:02.808Z,29.80
2019-05-22T11:47:34.333Z,29.70
2019-05-22T11:50:07.330Z,29.60
2019-05-22T11:52:39.308Z,29.50
2019-05-22T11:55:10.666Z,29.40
2019-05-22T11:57:43.855Z,29.30
2019-05-22T12:00:17.568Z,29.20
2019-05-22T12:02:49.220Z,29.20
2019-05-22T12:05:22.186Z,29.10
2019-05-22T12:07:54.467Z,29.00
2019-05-22T12:10:27.770Z,29.00
2019-05-22T12:13:00.068Z,29.00
2019-05-22T12:15:32.453Z,29.00
2019-05-22T12:18:04.549Z,28.90
2019-05-22T12:20:36.770Z,28.90
2019-05-22T12:23:07.508Z,28.90
2019-05-22T12:25:38.912Z,28.90
2019-05-22T12:28:11.010Z,28.90
2019-05-22T12:30:43.739Z,28.90
2019-05-22T12:33:15.492Z,28.90
2019-05-22T12:35:47.597Z,28.90
2019-05-22T12:38:17.960Z,28.80
2019-05-22T12:40:50.114Z,28.80
2019-05-22T12:43:21.816Z,28.70
2019-05-22T12:45:54.346Z,28.70
2019-05-22T12:48:26.098Z,28.70
2019-05-22T12:50:58.053Z,28.70
2019-05-22T12:53:29.821Z,28.70
2019-05-22T12:56:02.613Z,28.60
2019-05-22T12:58:35.179Z,28.60
2019-05-22T13:01:07.439Z,28.60
2019-05-22T13:03:40.949Z,28.60
2019-05-22T13:06:13.384Z,28.50
2019-05-22T13:08:45.137Z,28.50
2019-05-22T13:11:16.730Z,28.40
2019-05-22T13:13:49.130Z,28.40
2019-05-22T13:16:21.029Z,28.40
2019-05-22T13:18:52.608Z,28.40
2019-05-22T13:21:26.947Z,28.40
2019-05-22T13:23:59.021Z,28.30
2019-05-22T13:26:29.371Z,28.30
2019-05-22T13:29:01.839Z,28.20
2019-05-22T13:31:33.863Z,28.20
2019-05-22T13:34:05.732Z,28.10
2019-05-22T13:36:38.020Z,28.10
2019-05-22T13:39:11.171Z,28.10
2019-05-22T13:41:42.723Z,28.10
2019-05-22T13:44:14.944Z,28.10
2019-05-22T13:46:47.217Z,28.00
2019-05-22T13:49:19.271Z,28.00
2019-05-22T13:51:50.228Z,27.90
2019-05-22T13:54:22.819Z,27.90
2019-05-22T13:56:54.858Z,27.90
2019-05-22T13:59:25.419Z,27.90
2019-05-22T14:01:57.466Z,27.90
2019-05-22T14:04:27.926Z,27.90
2019-05-22T14:07:00.067Z,27.90
2019-05-22T14:09:31.536Z,27.90
2019-05-22T14:12:03.374Z,27.90
2019-05-22T14:14:35.666Z,27.90
2019-05-22T14:17:07.270Z,27.80
2019-05-22T14:19:38.749Z,27.90
2019-05-22T14:22:10.092Z,27.90
2019-05-22T14:24:42.166Z,27.90
2019-05-22T14:27:12.671Z,27.80
2019-05-22T14:29:44.239Z,27.80
2019-05-22T14:32:16.867Z,27.80
2019-05-22T14:34:48.797Z,27.70
2019-05-22T14:37:20.864Z,27.70
2019-05-22T14:39:51.319Z,27.70
2019-05-22T14:42:23.496Z,27.60
2019-05-22T14:44:53.489Z,27.60
2019-05-22T14:47:25.189Z,27.60
2019-05-22T14:49:56.900Z,27.60
2019-05-22T14:52:28.961Z,27.60
2019-05-22T14:54:59.815Z,27.50
2019-05-22T14:57:31.177Z,27.60
2019-05-22T15:00:02.883Z,27.50
2019-05-22T15:02:34.461Z,27.50
2019-05-22T15:05:07.137Z,27.50
2019-05-22T15:07:39.311Z,27.50
2019-05-22T15:10:10.596Z,27.40
2019-05-22T15:12:42.583Z,27.40
2019-05-22T15:15:14.806Z,27.40
2019-05-22T15:17:46.658Z,27.30
2019-05-22T15:20:21.287Z,27.30
2019-05-22T15:22:55.999Z,27.30
2019-05-22T15:25:26.754Z,27.20
2019-05-22T15:27:57.099Z,27.30
2019-05-22T15:30:29.346Z,27.20
2019-05-22T15:33:00.976Z,27.20
2019-05-22T15:35:33.284Z,27.20
2019-05-22T15:38:06.652Z,27.20
2019-05-22T15:40:39.254Z,27.20
2019-05-22T15:43:11.626Z,27.20
2019-05-22T15:45:44.015Z,27.20
2019-05-22T15:48:18.107Z,27.20
2019-05-22T15:50:51.558Z,27.20
2019-05-22T15:53:25.413Z,27.20
2019-05-22T15:55:58.611Z,27.10
2019-05-22T15:58:31.599Z,27.10
2019-05-22T16:01:03.697Z,27.10
2019-05-22T16:03:34.475Z,27.10
2019-05-22T16:06:08.263Z,27.10
2019-05-22T16:08:40.473Z,27.10
2019-05-22T16:11:11.846Z,27.10
2019-05-22T16:13:43.691Z,27.10
2019-05-22T16:16:18.309Z,27.10
2019-05-22T16:18:51.517Z,27.10
2019-05-22T16:21:23.275Z,27.10
2019-05-22T16:23:55.034Z,27.10
2019-05-22T16:26:27.205Z,27.00
2019-05-22T16:28:57.857Z,27.00
2019-05-22T16:31:29.722Z,27.00
2019-05-22T16:34:02.074Z,27.00
2019-05-22T16:36:34.150Z,27.00
2019-05-22T16:39:07.748Z,27.00
2019-05-22T16:41:40.409Z,27.00
2019-05-22T16:44:12.806Z,27.00
2019-05-22T16:46:45.262Z,27.00
2019-05-22T16:49:17.024Z,26.90
2019-05-22T16:51:49.873Z,26.90
2019-05-22T16:54:22.285Z,26.90
2019-05-22T16:56:55.078Z,26.90
2019-05-22T16:59:26.591Z,26.90
2019-05-22T17:02:00.291Z,26.90
2019-05-22T17:04:31.168Z,27.00
2019-05-22T17:07:03.231Z,26.90
2019-05-22T17:09:35.098Z,26.90
2019-05-22T17:12:08.384Z,26.80
2019-05-22T17:14:39.895Z,26.80
2019-05-22T17:17:14.166Z,26.80
2019-05-22T17:19:46.406Z,26.80
2019-05-22T17:22:16.804Z,26.70
2019-05-22T17:24:48.949Z,26.70
2019-05-22T17:27:19.781Z,26.70
2019-05-22T17:29:52.811Z,26.70
2019-05-22T17:32:25.438Z,26.70
2019-05-22T17:34:58.733Z,26.70
2019-05-22T17:37:31.861Z,26.70
2019-05-22T17:40:04.359Z,26.70
2019-05-22T17:42:36.098Z,26.70
2019-05-22T17:45:10.779Z,26.80
2019-05-22T17:47:43.765Z,26.90
2019-05-22T17:50:25.897Z,26.90
2019-05-22T17:52:51.319Z,26.90
2019-05-22T17:55:24.478Z,26.90
2019-05-22T17:57:55.818Z,26.80
2019-05-22T18:00:29.015Z,26.80
2019-05-22T18:03:01.602Z,26.80
2019-05-22T18:05:34.991Z,26.80
2019-05-22T18:08:07.020Z,26.90
2019-05-22T18:10:40.924Z,26.90
2019-05-22T18:13:14.011Z,26.90
2019-05-22T18:15:46.037Z,26.80
2019-05-22T18:18:18.599Z,26.80
2019-05-22T18:20:50.768Z,26.70
2019-05-22T18:23:21.125Z,26.70
2019-05-22T18:25:52.647Z,26.70
2019-05-22T18:28:24.711Z,26.60
2019-05-22T18:30:54.732Z,26.60
2019-05-22T18:33:26.533Z,26.60
2019-05-22T18:35:58.067Z,26.50
2019-05-22T18:38:29.920Z,26.50
2019-05-22T18:41:01.084Z,26.50
2019-05-22T18:43:32.112Z,26.40
2019-05-22T18:46:03.171Z,26.40
2019-05-22T18:48:34.201Z,26.40
2019-05-22T18:51:07.139Z,26.30
2019-05-22T18:53:37.979Z,26.30
2019-05-22T18:56:10.905Z,26.30
2019-05-22T18:58:42.601Z,26.30
2019-05-22T19:01:16.351Z,26.30
2019-05-22T19:03:46.884Z,26.30
2019-05-22T19:06:29.642Z,26.30
2019-05-22T19:08:52.562Z,26.30
2019-05-22T19:11:24.263Z,26.30
2019-05-22T19:13:55.477Z,26.30
2019-05-22T19:16:27.252Z,26.30
2019-05-22T19:18:58.977Z,26.30
2019-05-22T19:21:30.843Z,26.30
2019-05-22T19:24:02.563Z,26.30
2019-05-22T19:26:34.074Z,26.30
2019-05-22T19:29:05.424Z,26.30
2019-05-22T19:31:36.585Z,26.30
2019-05-22T19:34:08.615Z,26.30
2019-05-22T19:36:40.077Z,26.30
2019-05-22T19:39:11.282Z,26.30
2019-05-22T19:41:42.488Z,26.30
2019-05-22T19:44:14.349Z,26.30
2019-05-22T19:46:45.407Z,26.40
2019-05-22T19:49:17.384Z,26.40
2019-05-22T19:51:49.715Z,26.40
2019-05-22T19:54:21.468Z,26.40
2019-05-22T19:56:53.091Z,26.40
2019-05-22T19:59:25.406Z,26.50
2019-05-22T20:01:56.512Z,26.50
2019-05-22T20:04:28.400Z,26.50
2019-05-22T20:07:00.329Z,26.50
2019-05-22T20:09:32.379Z,26.50
2019-05-22T20:12:04.361Z,26.60
2019-05-22T20:14:35.529Z,26.60
2019-05-22T20:17:06.980Z,26.60
2019-05-22T20:19:38.317Z,26.60
2019-05-22T20:22:11.440Z,26.60
2019-05-22T20:24:42.584Z,26.70
2019-05-22T20:27:13.848Z,26.70
2019-05-22T20:29:45.072Z,26.70
2019-05-22T20:32:17.864Z,26.70
2019-05-22T20:34:50.232Z,26.70
2019-05-22T20:37:22.584Z,26.70
2019-05-22T20:39:54.306Z,26.80
2019-05-22T20:42:26.826Z,26.80
2019-05-22T20:44:59.108Z,26.90
2019-05-22T20:47:30.442Z,26.90
2019-05-22T20:50:02.321Z,26.90
2019-05-22T20:52:34.183Z,26.90
2019-05-22T20:55:08.204Z,26.90
2019-05-22T20:57:40.460Z,26.90
2019-05-22T21:00:13.959Z,26.90
2019-05-22T21:02:47.255Z,26.90
2019-05-22T21:05:21.371Z,27.00
2019-05-22T21:07:54.569Z,27.00
2019-05-22T21:10:26.225Z,27.10
2019-05-22T21:12:58.984Z,27.10
2019-05-22T21:15:31.179Z,27.10
2019-05-22T21:18:01.829Z,27.10
2019-05-22T21:20:34.796Z,27.00
2019-05-22T21:23:06.254Z,27.00
2019-05-22T21:25:38.003Z,27.00
2019-05-22T21:28:10.991Z,27.00
2019-05-22T21:30:43.062Z,27.00
2019-05-22T21:33:16.360Z,27.00
2019-05-22T21:35:48.318Z,27.00
2019-05-22T21:38:21.073Z,27.00
2019-05-22T21:40:53.167Z,27.10
2019-05-22T21:43:25.846Z,27.10
2019-05-22T21:45:57.715Z,27.00
2019-05-22T21:48:29.985Z,27.10
2019-05-22T21:51:03.260Z,27.00
2019-05-22T21:53:35.030Z,27.00
2019-05-22T21:56:07.723Z,27.10
2019-05-22T21:58:40.708Z,27.10
2019-05-22T22:01:14.824Z,27.00
2019-05-22T22:03:48.625Z,27.00
2019-05-22T22:06:21.610Z,27.00
2019-05-22T22:08:53.698Z,26.90
2019-05-22T22:11:27.499Z,26.80
2019-05-22T22:13:59.770Z,26.70
2019-05-22T22:16:31.161Z,26.60
2019-05-22T22:19:02.436Z,26.50
2019-05-22T22:21:33.974Z,26.50
2019-05-22T22:24:05.228Z,26.40
2019-05-22T22:26:36.615Z,26.30
2019-05-22T22:29:09.088Z,26.30
2019-05-22T22:31:42.493Z,26.20
2019-05-22T22:34:16.201Z,26.20
2019-05-22T22:36:48.720Z,26.10
2019-05-22T22:39:21.269Z,26.10
2019-05-22T22:41:53.818Z,26.00
2019-05-22T22:44:25.380Z,26.00
2019-05-22T22:46:58.046Z,26.00
2019-05-22T22:49:30.740Z,26.00
2019-05-22T22:52:02.490Z,25.90
2019-05-22T22:54:33.707Z,25.90
2019-05-22T22:57:06.746Z,25.90
2019-05-22T22:59:38.830Z,26.00
2019-05-22T23:02:13.429Z,26.00
2019-05-22T23:04:46.626Z,26.10
2019-05-22T23:07:20.092Z,26.10
2019-05-22T23:09:51.874Z,26.30
2019-05-22T23:12:24.249Z,26.40
2019-05-22T23:14:58.358Z,26.60
2019-05-22T23:17:31.495Z,26.70
2019-05-22T23:20:02.831Z,26.80
2019-05-22T23:22:33.187Z,26.90
2019-05-22T23:25:05.612Z,27.10
2019-05-22T23:27:38.501Z,27.20
2019-05-22T23:30:12.772Z,27.40
2019-05-22T23:32:45.705Z,27.60
2019-05-22T23:35:18.594Z,27.80
2019-05-22T23:37:50.147Z,27.90
2019-05-22T23:40:23.641Z,28.10
2019-05-22T23:42:56.071Z,28.30
2019-05-22T23:45:27.529Z,28.50
2019-05-22T23:48:01.483Z,28.70
2019-05-22T23:50:34.988Z,28.80
2019-05-22T23:53:06.735Z,29.10
2019-05-22T23:55:39.827Z,29.30
2019-05-22T23:58:13.119Z,29.50
